Time;durP1;ratioP1;P1;durP2;ratioP2;P2;SDS_P1;SDS_P2;PMS_P1;PMS_P2;Temp;Humidity;BMP_temperature;BMP_pressure;BME280_temperature;BME280_humidity;BME280_pressure;Samples;Min_cycle;Max_cycle;Signal;HPM_P1;HPM_P2
2021/12/05 00:22:13;;;;;;;4.40;0.85;;;7.40;83.80;;;;;;6303606;28;20477;-78
2021/12/05 00:25:21;;;;;;;4.20;1.10;;;7.40;83.40;;;;;;6301985;28;20056;-79
2021/12/05 00:52:06;;;;;;;7.15;1.33;;;7.50;84.20;;;;;;6307211;28;20100;-80
2021/12/05 00:59:13;;;;;;;2.85;0.80;;;7.50;84.10;;;;;;6234341;28;20049;-80
2021/12/05 01:02:35;;;;;;;4.90;0.73;;;7.60;84.90;;;;;;6293087;28;20048;-80
2021/12/05 01:06:17;;;;;;;2.75;0.68;;;7.60;84.10;;;;;;6291931;28;20048;-80
2021/12/05 01:12:51;;;;;;;4.88;0.93;;;7.50;84.30;;;;;;6288970;28;20101;-80
2021/12/05 01:15:54;;;;;;;2.90;0.88;;;7.50;85.40;;;;;;6290252;28;20458;-80
2021/12/05 01:18:56;;;;;;;3.38;0.75;;;7.40;84.40;;;;;;6289737;28;20053;-79
2021/12/05 01:22:02;;;;;;;2.35;1.50;;;7.40;84.90;;;;;;6288682;28;20086;-80
2021/12/05 01:25:17;;;;;;;2.80;0.60;;;7.40;85.30;;;;;;6289079;28;20104;-79
2021/12/05 01:28:29;;;;;;;6.07;1.20;;;7.40;85.10;;;;;;6276863;28;20060;-80
2021/12/05 01:31:41;;;;;;;6.65;1.35;;;7.40;84.80;;;;;;6281423;28;20056;-79
2021/12/05 01:34:56;;;;;;;4.15;1.02;;;7.40;85.50;;;;;;6287359;28;20068;-80
2021/12/05 01:38:06;;;;;;;2.63;0.90;;;7.40;86.90;;;;;;6288911;28;20059;-79
2021/12/05 01:45:13;;;;;;;8.45;1.48;;;7.40;88.10;;;;;;6232792;28;20050;-80
2021/12/05 01:55:22;;;;;;;2.50;0.57;;;7.20;87.60;;;;;;6286331;28;20049;-80
2021/12/05 02:08:56;;;;;;;5.15;0.88;;;7.20;88.30;;;;;;6284648;28;20037;-79
2021/12/05 02:32:21;;;;;;;5.75;0.90;;;7.10;88.50;;;;;;6283742;28;20032;-79
2021/12/05 02:35:35;;;;;;;4.43;1.02;;;7.10;87.60;;;;;;6281914;28;20045;-80
2021/12/05 02:42:14;;;;;;;7.80;1.55;;;7.10;87.80;;;;;;6230854;28;20117;-79
2021/12/05 02:45:16;;;;;;;2.00;0.70;;;7.10;88.40;;;;;;6283473;28;20124;-79
2021/12/05 02:48:20;;;;;;;3.05;0.52;;;7.10;87.00;;;;;;6282151;28;20049;-79
2021/12/05 02:51:27;;;;;;;4.30;0.98;;;6.90;86.50;;;;;;6281680;28;20053;-79
2021/12/05 02:54:36;;;;;;;3.72;1.55;;;6.80;87.80;;;;;;6286832;28;20045;-80
2021/12/05 02:57:53;;;;;;;7.47;0.95;;;6.70;88.00;;;;;;6285650;28;20049;-80
2021/12/05 03:01:09;;;;;;;2.92;0.40;;;6.70;88.10;;;;;;6283875;28;20087;-79
2021/12/05 03:04:11;;;;;;;1.02;0.40;;;6.70;88.20;;;;;;6285590;28;20053;-81
2021/12/05 03:07:13;;;;;;;4.85;1.20;;;6.80;88.60;;;;;;6285910;28;20103;-80
2021/12/05 03:10:21;;;;;;;3.35;0.68;;;6.80;88.80;;;;;;6288164;28;20135;-80
2021/12/05 03:13:23;;;;;;;4.88;0.80;;;6.80;88.40;;;;;;6287776;28;20128;-80
2021/12/05 03:16:27;;;;;;;2.00;0.95;;;6.80;88.60;;;;;;6284402;28;20053;-80
2021/12/05 03:19:29;;;;;;;2.85;1.00;;;6.70;88.40;;;;;;6285994;28;20041;-79
2021/12/05 03:22:31;;;;;;;2.95;0.95;;;6.70;88.80;;;;;;6285665;28;20059;-80
2021/12/05 03:25:34;;;;;;;7.57;0.73;;;6.60;88.80;;;;;;6285044;28;20048;-80
2021/12/05 03:28:37;;;;;;;7.07;3.05;;;6.50;88.30;;;;;;6287562;28;20143;-79
2021/12/05 03:31:39;;;;;;;4.03;1.85;;;6.30;89.00;;;;;;6287181;28;20136;-80
2021/12/05 03:34:41;;;;;;;14.93;4.40;;;6.30;90.00;;;;;;6286169;28;20060;-80
2021/12/05 03:37:43;;;;;;;61.97;22.70;;;6.20;89.90;;;;;;6286896;28;20073;-81
2021/12/05 03:40:47;;;;;;;7.07;1.20;;;6.20;90.20;;;;;;6285367;28;20087;-80
2021/12/05 03:43:53;;;;;;;15.40;3.60;;;6.20;90.10;;;;;;6290081;28;20067;-80
2021/12/05 03:46:56;;;;;;;132.57;62.80;;;6.30;90.30;;;;;;6288391;28;20060;-78
2021/12/05 03:49:58;;;;;;;34.90;17.27;;;6.30;90.40;;;;;;6284766;28;20044;-79
2021/12/05 03:53:00;;;;;;;11.50;1.30;;;6.30;90.60;;;;;;6281680;28;20049;-78
2021/12/05 03:56:08;;;;;;;6.00;1.17;;;6.30;90.60;;;;;;6282329;28;20510;-79
2021/12/05 04:49:15;;;;;;;4.63;1.42;;;6.00;91.10;;;;;;6140795;29;20051;-83
2021/12/05 05:59:44;;;;;;;4.32;0.85;;;5.60;90.30;;;;;;6141427;28;20045;-82
2021/12/05 06:06:08;;;;;;;2.92;1.15;;;5.60;90.80;;;;;;6235193;28;20041;-83
2021/12/05 06:09:10;;;;;;;4.50;0.90;;;5.70;90.90;;;;;;6234949;28;20129;-82
2021/12/05 06:12:12;;;;;;;6.15;1.08;;;5.80;90.70;;;;;;6235186;28;20060;-83
2021/12/05 06:15:17;;;;;;;0.65;0.35;;;5.70;90.30;;;;;;6235508;28;20108;-83
2021/12/05 06:18:20;;;;;;;10.75;1.35;;;5.70;90.50;;;;;;6236932;28;20168;-82
2021/12/05 06:21:21;;;;;;;7.13;1.20;;;5.70;90.60;;;;;;6237136;28;20053;-83
2021/12/05 06:24:27;;;;;;;0.93;0.30;;;5.80;90.60;;;;;;6236016;28;20053;-82
2021/12/05 06:27:29;;;;;;;4.35;0.60;;;5.80;90.30;;;;;;6235792;28;20073;-82
2021/12/05 06:30:41;;;;;;;6.47;0.90;;;5.70;90.30;;;;;;6237511;28;20049;-82
2021/12/05 06:40:37;;;;;;;2.38;0.88;;;5.80;90.50;;;;;;6225238;28;20419;-83
2021/12/05 06:47:15;;;;;;;7.60;0.88;;;6.00;90.10;;;;;;6182545;28;20051;-82
2021/12/05 06:50:18;;;;;;;5.07;0.98;;;6.20;90.00;;;;;;6183363;28;20078;-83
2021/12/05 06:53:19;;;;;;;14.15;1.55;;;6.20;90.30;;;;;;6224149;28;20129;-83
2021/12/05 06:56:24;;;;;;;4.38;0.60;;;6.30;89.90;;;;;;6231923;28;20051;-83
2021/12/05 06:59:27;;;;;;;2.80;0.50;;;6.20;89.90;;;;;;6233548;28;20046;-83
2021/12/05 07:02:30;;;;;;;1.40;0.30;;;6.10;89.10;;;;;;6235589;28;20148;-84
2021/12/05 07:05:44;;;;;;;3.03;0.57;;;6.10;89.00;;;;;;6231638;28;20176;-83
2021/12/05 07:08:47;;;;;;;5.65;0.73;;;6.00;89.10;;;;;;6234107;28;20056;-82
2021/12/05 07:11:58;;;;;;;6.15;0.82;;;5.80;89.20;;;;;;6234681;28;20046;-82
2021/12/05 07:15:03;;;;;;;7.03;0.85;;;5.80;89.40;;;;;;6233986;28;20081;-82
2021/12/05 07:21:36;;;;;;;2.00;0.60;;;5.80;89.70;;;;;;6233083;28;20069;-82
2021/12/05 07:24:45;;;;;;;0.82;0.22;;;5.80;89.70;;;;;;6231774;28;20050;-82
2021/12/05 07:41:21;;;;;;;3.03;1.05;;;6.20;88.80;;;;;;6233982;28;20042;-82
2021/12/05 07:44:23;;;;;;;1.90;0.47;;;6.40;89.20;;;;;;6234262;28;20719;-82
2021/12/05 07:47:30;;;;;;;3.75;0.40;;;6.50;88.90;;;;;;6233478;28;20064;-83
2021/12/05 07:50:41;;;;;;;7.22;1.27;;;6.60;87.80;;;;;;6235119;28;20064;-83
2021/12/05 07:53:52;;;;;;;5.53;1.05;;;6.70;87.10;;;;;;6233477;28;20129;-82
2021/12/05 07:57:03;;;;;;;1.17;0.43;;;6.80;87.20;;;;;;6233751;28;20060;-83
2021/12/05 08:00:13;;;;;;;3.20;0.98;;;6.70;87.00;;;;;;6234003;28;20042;-84
2021/12/05 08:16:35;;;;;;;1.30;0.57;;;7.00;84.90;;;;;;6239775;28;20050;-83
2021/12/05 08:19:37;;;;;;;3.70;0.60;;;7.00;86.00;;;;;;6246062;28;20041;-82
2021/12/05 08:22:40;;;;;;;5.15;0.75;;;7.10;85.20;;;;;;6255093;28;20058;-83
2021/12/05 08:25:46;;;;;;;2.45;0.50;;;7.30;85.70;;;;;;6254140;28;20046;-83
2021/12/05 08:29:02;;;;;;;1.13;0.57;;;7.50;86.10;;;;;;6254974;28;20042;-86
2021/12/05 08:32:20;;;;;;;2.97;1.10;;;7.80;86.50;;;;;;6254603;28;20050;-84
2021/12/05 08:35:43;;;;;;;4.53;0.65;;;8.10;85.20;;;;;;6248879;28;20045;-84
2021/12/05 08:39:28;;;;;;;2.13;0.73;;;8.30;85.60;;;;;;6252183;28;20073;-82
2021/12/05 09:23:22;;;;;;;5.75;0.65;;;7.40;86.20;;;;;;6234030;28;20069;-82
2021/12/05 10:01:26;;;;;;;3.13;0.50;;;7.70;90.30;;;;;;6249690;28;20041;-82
2021/12/05 10:10:53;;;;;;;4.60;1.48;;;7.60;90.20;;;;;;6231400;28;20054;-85
2021/12/05 10:14:16;;;;;;;8.60;2.05;;;7.80;90.50;;;;;;6223392;28;20116;-78
2021/12/05 10:34:03;;;;;;;2.97;0.60;;;8.30;90.40;;;;;;6236269;28;20400;-82
2021/12/05 10:37:09;;;;;;;4.03;0.77;;;8.40;90.00;;;;;;6235856;28;20052;-82
2021/12/05 10:40:16;;;;;;;1.63;0.60;;;8.40;89.80;;;;;;6236799;28;20091;-83
2021/12/05 10:43:21;;;;;;;5.93;0.57;;;8.50;89.80;;;;;;6238578;28;20101;-81
2021/12/05 10:46:29;;;;;;;3.17;0.55;;;8.50;89.60;;;;;;6234015;28;20049;-82
2021/12/05 10:49:42;;;;;;;2.03;0.68;;;8.60;89.60;;;;;;6233615;28;20569;-82
2021/12/05 10:52:45;;;;;;;3.17;0.45;;;8.70;89.20;;;;;;6231779;28;20049;-79
2021/12/05 10:55:54;;;;;;;3.67;0.70;;;8.70;89.00;;;;;;6228581;28;20133;-80
2021/12/05 11:02:30;;;;;;;6.47;0.57;;;8.80;88.60;;;;;;6237249;28;20049;-80
2021/12/05 11:05:37;;;;;;;7.57;0.60;;;8.90;88.60;;;;;;6222452;28;20101;-82
2021/12/05 11:08:40;;;;;;;2.23;0.37;;;9.00;88.40;;;;;;6220914;28;20423;-80
2021/12/05 11:11:46;;;;;;;2.10;1.17;;;8.90;87.60;;;;;;6223933;28;20320;-80
2021/12/05 11:14:52;;;;;;;1.30;0.60;;;8.70;87.50;;;;;;6228121;28;20090;-81
2021/12/05 11:17:59;;;;;;;0.70;0.50;;;8.60;85.00;;;;;;6220361;28;20069;-81
2021/12/05 11:21:18;;;;;;;1.05;0.40;;;8.30;85.80;;;;;;6235628;28;20060;-80
2021/12/05 11:24:29;;;;;;;7.03;0.60;;;8.10;86.90;;;;;;6215914;28;20052;-81
2021/12/05 11:27:39;;;;;;;4.45;0.93;;;8.00;87.00;;;;;;6215447;28;20090;-80
2021/12/05 11:30:44;;;;;;;4.13;0.85;;;7.90;87.80;;;;;;6221411;28;20100;-80
2021/12/05 11:33:46;;;;;;;4.10;1.40;;;8.00;87.90;;;;;;6213005;28;20057;-80
2021/12/05 11:36:58;;;;;;;3.33;0.47;;;8.00;87.10;;;;;;6221116;28;20125;-79
2021/12/05 11:40:07;;;;;;;2.72;0.60;;;8.00;87.90;;;;;;6198939;28;20041;-80
2021/12/05 11:43:12;;;;;;;4.22;0.60;;;8.00;87.80;;;;;;6231994;28;20060;-81
2021/12/05 11:46:16;;;;;;;1.05;0.50;;;8.00;87.90;;;;;;6231779;28;20199;-81
2021/12/05 11:49:21;;;;;;;2.05;0.47;;;8.20;88.20;;;;;;6230099;28;20113;-82
2021/12/05 11:52:24;;;;;;;3.97;0.70;;;8.10;89.10;;;;;;6227879;28;20136;-82
2021/12/05 11:55:31;;;;;;;2.28;0.60;;;8.30;88.40;;;;;;6227894;28;20407;-81
2021/12/05 11:58:33;;;;;;;5.32;1.02;;;8.30;87.80;;;;;;6230566;28;20054;-80
2021/12/05 12:05:22;;;;;;;4.57;0.65;;;7.80;87.90;;;;;;6229388;28;20038;-79
2021/12/05 12:08:24;;;;;;;3.60;0.45;;;7.70;87.70;;;;;;6231664;28;20046;-81
2021/12/05 12:11:28;;;;;;;5.15;0.50;;;7.60;88.00;;;;;;6232279;28;20061;-80
2021/12/05 12:14:30;;;;;;;1.15;0.47;;;7.70;89.10;;;;;;6226162;28;20084;-81
2021/12/05 12:17:32;;;;;;;3.63;1.00;;;7.80;89.00;;;;;;6227611;28;20045;-80
2021/12/05 12:20:36;;;;;;;4.90;1.05;;;8.10;89.30;;;;;;6228615;28;20050;-79
2021/12/05 12:23:39;;;;;;;4.03;1.23;;;8.40;89.80;;;;;;6229087;28;20057;-80
2021/12/05 12:26:43;;;;;;;5.90;0.50;;;8.50;88.60;;;;;;6228789;28;20088;-79
2021/12/05 12:29:46;;;;;;;3.40;0.57;;;8.60;88.30;;;;;;6233118;28;20053;-80
2021/12/05 12:32:50;;;;;;;5.40;1.02;;;8.70;91.30;;;;;;6232082;28;20046;-80
2021/12/05 12:35:52;;;;;;;2.92;1.00;;;8.90;90.70;;;;;;6231804;28;20133;-80
2021/12/05 12:38:54;;;;;;;3.47;1.30;;;9.00;90.50;;;;;;6232254;28;20049;-79
2021/12/05 12:42:10;;;;;;;6.15;1.17;;;9.10;90.10;;;;;;6230846;28;20045;-80
2021/12/05 12:45:16;;;;;;;3.20;1.20;;;9.10;90.00;;;;;;6225835;28;20091;-80
2021/12/05 12:48:18;;;;;;;4.95;1.95;;;9.20;89.70;;;;;;6227662;28;20135;-80
2021/12/05 12:51:36;;;;;;;2.25;1.00;;;9.20;89.10;;;;;;6231011;28;20050;-80
2021/12/05 12:54:42;;;;;;;5.38;1.15;;;9.30;90.10;;;;;;6232137;28;20054;-79
2021/12/05 12:57:46;;;;;;;2.92;1.40;;;9.40;88.80;;;;;;6232171;28;20042;-80
2021/12/05 13:00:48;;;;;;;2.45;1.48;;;9.50;88.80;;;;;;6230319;28;20056;-81
2021/12/05 13:04:28;;;;;;;5.72;1.20;;;9.50;88.60;;;;;;6231104;28;20577;-81
2021/12/05 13:11:05;;;;;;;4.22;1.80;;;9.40;87.50;;;;;;6230410;28;20049;-80
2021/12/05 13:14:08;;;;;;;9.88;6.60;;;9.30;86.50;;;;;;6223895;28;20069;-80
2021/12/05 13:17:10;;;;;;;3.63;2.42;;;9.20;87.00;;;;;;6229607;28;20053;-82
2021/12/05 13:20:15;;;;;;;0.63;0.30;;;9.10;86.00;;;;;;6230242;28;20161;-81
2021/12/05 13:23:20;;;;;;;1.77;0.60;;;9.20;84.50;;;;;;6233276;28;20088;-80
2021/12/05 13:26:30;;;;;;;4.15;2.38;;;9.30;85.20;;;;;;6229737;28;20549;-80
2021/12/05 13:33:22;;;;;;;0.85;0.50;;;10.10;88.30;;;;;;6228732;28;20056;-80
2021/12/05 13:40:06;;;;;;;1.17;0.30;;;11.10;85.30;;;;;;6229373;28;20049;-84
2021/12/05 13:43:27;;;;;;;13.45;6.15;;;11.50;83.30;;;;;;6243375;28;20046;-81
2021/12/05 13:54:01;;;;;;;4.15;0.65;;;12.20;77.40;;;;;;6217304;28;20055;-80
2021/12/05 13:57:08;;;;;;;1.48;0.32;;;12.20;75.80;;;;;;6212184;28;20065;-81
2021/12/05 14:15:41;;;;;;;2.10;0.40;;;13.00;71.60;;;;;;6237519;28;20038;-80
2021/12/05 14:18:43;;;;;;;2.03;0.60;;;13.20;72.80;;;;;;6240471;28;20050;-81
2021/12/05 14:21:47;;;;;;;1.48;0.70;;;13.20;72.20;;;;;;6238098;28;20109;-82
2021/12/05 14:25:03;;;;;;;1.40;0.20;;;13.00;70.70;;;;;;6239035;28;20419;-81
2021/12/05 14:28:20;;;;;;;6.25;0.90;;;12.70;71.40;;;;;;6235509;28;20147;-80
2021/12/05 14:31:25;;;;;;;1.40;0.77;;;12.30;71.60;;;;;;6243337;28;20056;-79
2021/12/05 14:34:29;;;;;;;2.63;0.30;;;12.00;72.60;;;;;;6238037;28;20049;-80
2021/12/05 14:37:33;;;;;;;2.33;0.40;;;11.70;73.00;;;;;;6238689;28;20050;-80
2021/12/05 14:40:40;;;;;;;11.38;0.95;;;11.40;74.00;;;;;;6238952;28;20186;-82
2021/12/05 14:47:24;;;;;;;2.45;0.68;;;10.70;75.60;;;;;;6208742;28;20062;-81
2021/12/05 14:50:30;;;;;;;3.85;0.47;;;10.40;76.30;;;;;;6216665;28;20097;-81
2021/12/05 14:53:31;;;;;;;2.63;0.55;;;9.90;77.30;;;;;;6237613;28;20531;-82
2021/12/05 14:56:37;;;;;;;0.65;0.20;;;9.60;78.20;;;;;;6236041;28;20073;-82
2021/12/05 15:00:12;;;;;;;0.52;0.30;;;9.40;79.10;;;;;;6228464;28;20049;-81
2021/12/05 15:03:18;;;;;;;1.67;0.25;;;9.10;79.40;;;;;;6241727;28;20121;-82
2021/12/05 15:06:39;;;;;;;2.17;0.28;;;9.10;79.90;;;;;;6235520;28;20069;-83
2021/12/05 15:09:45;;;;;;;3.13;0.32;;;8.70;80.50;;;;;;6234717;28;20045;-81
2021/12/05 15:13:11;;;;;;;1.08;0.35;;;8.60;81.40;;;;;;6229796;28;20044;-81
2021/12/05 15:16:17;;;;;;;1.42;0.50;;;8.50;81.90;;;;;;6208799;28;20054;-80
2021/12/05 15:19:19;;;;;;;1.67;0.52;;;8.30;82.40;;;;;;6218159;28;20145;-80
2021/12/05 15:22:26;;;;;;;0.77;0.30;;;8.20;82.60;;;;;;6211838;28;20050;-82
2021/12/05 15:25:36;;;;;;;1.20;0.53;;;8.00;83.00;;;;;;6209506;28;20042;-81
2021/12/05 15:28:39;;;;;;;1.85;0.25;;;7.90;83.80;;;;;;6207616;28;20058;-81
2021/12/05 15:31:44;;;;;;;0.68;0.20;;;7.60;84.40;;;;;;6213979;28;20526;-81
2021/12/05 15:38:16;;;;;;;1.38;0.45;;;7.60;85.50;;;;;;6219728;28;20285;-81
2021/12/05 15:41:25;;;;;;;1.00;0.20;;;7.60;85.80;;;;;;6247074;28;20054;-81
2021/12/05 15:48:24;;;;;;;0.85;0.40;;;7.50;85.20;;;;;;6228613;28;20053;-81
2021/12/05 15:51:26;;;;;;;1.70;0.60;;;7.50;85.30;;;;;;6241694;28;20050;-81
2021/12/05 15:54:28;;;;;;;3.00;0.70;;;7.40;85.50;;;;;;6222827;28;20056;-81
2021/12/05 15:57:33;;;;;;;4.88;0.93;;;7.40;85.60;;;;;;6224615;28;20630;-79
2021/12/05 16:08:51;;;;;;;2.35;0.68;;;7.40;86.10;;;;;;6224771;28;20077;-83
2021/12/05 16:12:12;;;;;;;6.07;1.80;;;7.40;86.20;;;;;;6207612;28;20045;-83
2021/12/05 16:15:36;;;;;;;11.25;2.38;;;7.30;86.50;;;;;;6211044;28;20046;-83
2021/12/05 16:18:43;;;;;;;9.07;3.30;;;7.30;86.60;;;;;;6225220;28;20053;-83
2021/12/05 16:22:23;;;;;;;4.82;2.92;;;7.30;86.80;;;;;;6223519;28;20411;-82
2021/12/05 16:25:28;;;;;;;5.25;1.40;;;7.30;86.90;;;;;;6232320;28;20057;-82
2021/12/05 16:28:35;;;;;;;2.03;1.40;;;7.20;86.80;;;;;;6231254;28;20499;-82
2021/12/05 16:31:40;;;;;;;7.38;2.10;;;7.30;87.00;;;;;;6232033;28;20049;-84
2021/12/05 16:34:46;;;;;;;8.73;1.40;;;7.30;87.20;;;;;;6231522;28;20060;-83
2021/12/05 16:37:48;;;;;;;3.63;1.90;;;7.20;87.10;;;;;;6233326;28;20071;-84
2021/12/05 16:40:57;;;;;;;7.05;1.73;;;7.10;87.20;;;;;;6232774;28;20104;-82
2021/12/05 16:44:09;;;;;;;8.65;2.95;;;7.10;87.20;;;;;;6230164;28;20070;-81
2021/12/05 16:47:14;;;;;;;6.82;2.30;;;7.00;87.30;;;;;;6228020;28;20050;-82
2021/12/05 16:50:22;;;;;;;6.40;2.30;;;6.90;87.60;;;;;;6201497;28;20542;-82
2021/12/05 16:53:34;;;;;;;3.53;1.77;;;6.90;87.90;;;;;;6219230;28;20529;-82
2021/12/05 17:01:27;;;;;;;15.27;2.92;;;6.70;87.70;;;;;;6198393;28;20643;-84
2021/12/05 17:04:44;;;;;;;4.18;2.22;;;6.50;88.30;;;;;;6232493;28;20054;-83
2021/12/05 17:07:54;;;;;;;5.45;2.63;;;6.50;88.50;;;;;;6231508;28;20049;-81
2021/12/05 17:10:59;;;;;;;6.68;2.65;;;6.50;88.80;;;;;;6229291;28;20045;-82
2021/12/05 17:14:01;;;;;;;3.80;1.77;;;6.40;88.80;;;;;;6238157;28;20217;-84
2021/12/05 17:17:02;;;;;;;4.72;2.20;;;6.40;89.20;;;;;;6256912;28;20096;-83
2021/12/05 17:20:21;;;;;;;9.23;3.03;;;6.40;89.40;;;;;;6256587;28;20042;-85
2021/12/05 17:23:28;;;;;;;4.97;1.95;;;6.50;90.10;;;;;;6236397;28;20073;-83
2021/12/05 17:26:33;;;;;;;4.57;1.65;;;6.60;89.60;;;;;;6229881;28;20052;-84
2021/12/05 17:29:39;;;;;;;4.55;1.88;;;6.70;89.50;;;;;;6232151;28;20045;-85
2021/12/05 17:32:40;;;;;;;6.20;1.55;;;6.70;89.40;;;;;;6232149;28;20046;-83
2021/12/05 17:35:44;;;;;;;5.95;1.67;;;6.70;89.40;;;;;;6228188;28;20042;-83
2021/12/05 17:38:46;;;;;;;2.05;1.10;;;6.70;89.40;;;;;;6230863;28;20109;-83
2021/12/05 17:41:50;;;;;;;4.10;1.20;;;6.70;89.40;;;;;;6229925;28;20046;-84
2021/12/05 17:44:54;;;;;;;3.58;0.95;;;6.80;89.60;;;;;;6229948;28;20426;-82
2021/12/05 17:47:56;;;;;;;4.28;1.33;;;6.80;89.40;;;;;;6228857;28;20041;-84
2021/12/05 17:51:03;;;;;;;7.20;1.42;;;6.80;89.30;;;;;;6230912;28;20057;-83
2021/12/05 17:54:06;;;;;;;38.83;20.85;;;6.90;89.30;;;;;;6230320;28;20054;-83
2021/12/05 17:57:13;;;;;;;45.08;29.55;;;6.90;89.40;;;;;;6232297;28;20129;-83
2021/12/05 18:00:33;;;;;;;19.10;10.80;;;6.90;89.50;;;;;;6233286;28;20050;-84
2021/12/05 18:03:35;;;;;;;24.15;13.20;;;7.00;90.50;;;;;;6230946;28;20626;-84
2021/12/05 18:06:38;;;;;;;15.75;8.95;;;7.10;91.00;;;;;;6231503;28;20537;-84
2021/12/05 18:09:41;;;;;;;17.25;7.80;;;7.10;91.30;;;;;;6229834;28;20103;-83
2021/12/05 18:12:44;;;;;;;9.60;5.35;;;7.20;90.60;;;;;;6229424;28;20050;-83
2021/12/05 18:15:53;;;;;;;12.25;4.90;;;7.30;90.50;;;;;;6229801;28;20042;-84
2021/12/05 18:18:58;;;;;;;12.32;4.00;;;7.20;90.10;;;;;;6232331;28;20085;-84
2021/12/05 18:22:01;;;;;;;7.55;3.42;;;7.30;90.10;;;;;;6234359;28;20050;-84
2021/12/05 18:25:04;;;;;;;5.13;2.53;;;7.30;90.00;;;;;;6232939;28;20095;-84
2021/12/05 18:28:08;;;;;;;5.35;2.33;;;7.40;89.80;;;;;;6231362;28;20050;-84
2021/12/05 18:31:16;;;;;;;4.97;2.40;;;7.40;89.40;;;;;;6229329;28;20472;-82
2021/12/05 18:34:21;;;;;;;6.82;2.22;;;7.40;89.10;;;;;;6228694;28;20046;-82
2021/12/05 18:37:24;;;;;;;5.25;2.33;;;7.30;88.90;;;;;;6227472;28;20046;-84
2021/12/05 18:40:26;;;;;;;4.68;1.92;;;7.30;89.70;;;;;;6229471;28;20084;-83
2021/12/05 18:43:30;;;;;;;6.70;2.22;;;7.30;88.60;;;;;;6227230;28;20053;-85
2021/12/05 18:46:32;;;;;;;2.50;1.38;;;7.30;88.00;;;;;;6227828;28;20136;-85
2021/12/05 18:49:35;;;;;;;5.05;1.98;;;7.20;88.00;;;;;;6227969;28;20050;-83
2021/12/05 18:52:39;;;;;;;5.65;1.92;;;7.20;88.00;;;;;;6226467;28;20056;-86
2021/12/05 18:55:52;;;;;;;11.82;4.53;;;7.20;87.90;;;;;;6201150;28;20080;-85
2021/12/05 18:58:55;;;;;;;33.95;20.83;;;7.30;87.80;;;;;;6205236;28;20054;-83
2021/12/05 19:05:31;;;;;;;8.20;6.07;;;7.30;87.50;;;;;;6205623;28;20042;-84
2021/12/05 19:08:41;;;;;;;7.95;4.13;;;7.30;87.40;;;;;;6205111;28;20050;-84
2021/12/05 19:11:47;;;;;;;4.10;1.80;;;7.30;87.10;;;;;;6206812;28;20105;-85
2021/12/05 19:14:52;;;;;;;3.45;1.73;;;7.30;87.20;;;;;;6238832;28;20120;-81
2021/12/05 19:17:55;;;;;;;4.63;1.60;;;7.30;86.80;;;;;;6228690;28;20069;-83
2021/12/05 19:21:26;;;;;;;3.53;1.92;;;7.30;86.30;;;;;;6225701;28;20060;-83
2021/12/05 19:25:06;;;;;;;4.60;1.45;;;7.10;86.60;;;;;;6228593;28;20076;-83
2021/12/05 19:32:07;;;;;;;5.10;1.95;;;7.00;87.20;;;;;;6229541;28;20065;-83
2021/12/05 19:35:10;;;;;;;3.38;1.52;;;6.90;87.40;;;;;;6228524;28;20049;-83
2021/12/05 19:38:13;;;;;;;3.47;2.03;;;6.80;87.60;;;;;;6230331;28;20508;-82
2021/12/05 19:41:17;;;;;;;2.53;1.35;;;6.70;87.70;;;;;;6229598;28;20054;-83
2021/12/05 19:44:21;;;;;;;3.38;1.42;;;6.60;88.00;;;;;;6227591;28;20199;-82
2021/12/05 19:47:27;;;;;;;2.63;1.65;;;6.50;88.20;;;;;;6222074;28;20407;-82
2021/12/05 19:50:36;;;;;;;3.75;1.45;;;6.60;88.30;;;;;;6203465;28;20212;-82
2021/12/05 19:53:41;;;;;;;2.83;1.80;;;6.50;88.10;;;;;;6203921;28;20520;-82
2021/12/05 19:56:46;;;;;;;3.45;1.98;;;6.40;88.10;;;;;;6204306;28;20038;-81
2021/12/05 19:59:47;;;;;;;8.93;2.22;;;6.30;88.20;;;;;;6205503;28;20054;-81
2021/12/05 20:02:50;;;;;;;7.43;2.85;;;6.30;88.30;;;;;;6209241;28;20054;-81
2021/12/05 20:05:52;;;;;;;4.25;1.90;;;6.30;88.40;;;;;;6207766;28;20104;-81
2021/12/05 20:08:56;;;;;;;4.00;1.90;;;6.20;88.40;;;;;;6207714;28;20050;-83
2021/12/05 20:12:00;;;;;;;3.25;1.45;;;6.20;88.60;;;;;;6215448;28;20046;-82
2021/12/05 20:15:44;;;;;;;1.65;1.05;;;6.20;88.50;;;;;;6233150;28;20142;-84
2021/12/05 20:19:04;;;;;;;4.82;1.92;;;6.00;88.50;;;;;;6233403;28;20455;-85
2021/12/05 20:22:08;;;;;;;3.85;1.77;;;5.90;88.70;;;;;;6234184;28;20082;-84
2021/12/05 20:25:13;;;;;;;3.78;1.52;;;5.80;89.00;;;;;;6233474;28;20711;-82
2021/12/05 20:28:57;;;;;;;4.65;1.70;;;5.80;88.90;;;;;;6230788;28;20180;-84
2021/12/05 20:32:19;;;;;;;4.28;1.60;;;5.60;89.10;;;;;;6232708;28;20057;-83
2021/12/05 20:35:32;;;;;;;6.13;1.48;;;5.60;89.80;;;;;;6234851;28;20046;-84
2021/12/05 20:38:41;;;;;;;3.50;1.85;;;5.70;89.70;;;;;;6234884;28;20057;-84
2021/12/05 20:41:44;;;;;;;2.53;1.98;;;5.70;89.60;;;;;;6237630;28;20089;-82
2021/12/05 20:44:47;;;;;;;3.58;1.60;;;5.70;90.00;;;;;;6235772;28;20117;-82
2021/12/05 20:47:49;;;;;;;2.58;1.40;;;5.70;89.30;;;;;;6244898;28;20105;-81
2021/12/05 20:50:52;;;;;;;6.18;2.22;;;5.80;90.00;;;;;;6233199;28;20073;-81
2021/12/05 20:57:36;;;;;;;6.18;2.63;;;5.80;89.40;;;;;;6208778;28;20079;-83
2021/12/05 21:04:46;;;;;;;4.18;1.63;;;5.80;89.90;;;;;;6180070;28;20076;-84
2021/12/05 21:08:16;;;;;;;4.57;2.17;;;5.80;89.30;;;;;;6230496;28;20531;-85
2021/12/05 21:11:30;;;;;;;2.33;1.88;;;5.80;89.30;;;;;;6230460;28;20124;-83
2021/12/05 21:14:33;;;;;;;3.58;1.95;;;5.80;89.30;;;;;;6228100;28;20054;-84
2021/12/05 21:17:34;;;;;;;3.88;2.20;;;5.80;89.40;;;;;;6226160;28;20054;-82
2021/12/05 21:20:39;;;;;;;5.03;2.58;;;5.80;89.40;;;;;;6225760;28;20056;-82
2021/12/05 21:23:41;;;;;;;5.97;2.03;;;5.80;89.50;;;;;;6226337;28;20125;-84
2021/12/05 21:26:43;;;;;;;1.92;1.45;;;5.80;89.50;;;;;;6227103;28;20053;-83
2021/12/05 21:29:45;;;;;;;13.20;2.03;;;5.80;89.40;;;;;;6226314;28;20056;-81
2021/12/05 21:32:47;;;;;;;4.70;1.77;;;5.70;89.30;;;;;;6226878;28;20053;-83
2021/12/05 21:35:51;;;;;;;3.75;1.88;;;5.70;89.60;;;;;;6225292;28;20038;-83
2021/12/05 21:38:53;;;;;;;2.65;1.70;;;5.70;89.60;;;;;;6225207;28;20666;-83
2021/12/05 21:41:55;;;;;;;4.57;2.53;;;5.70;89.60;;;;;;6224729;28;20038;-83
2021/12/05 21:44:57;;;;;;;4.50;2.25;;;5.70;89.30;;;;;;6225332;28;20069;-82
2021/12/05 21:47:59;;;;;;;3.63;2.05;;;5.80;89.30;;;;;;6224950;28;20052;-84
2021/12/05 21:51:05;;;;;;;9.13;3.15;;;5.80;89.30;;;;;;6226196;28;20181;-83
2021/12/05 21:54:07;;;;;;;9.98;4.70;;;5.80;89.30;;;;;;6226745;28;20056;-85
2021/12/05 21:57:09;;;;;;;10.27;4.22;;;5.80;89.40;;;;;;6226446;28;20165;-85
2021/12/05 22:00:15;;;;;;;13.43;4.35;;;5.90;89.40;;;;;;6230426;28;20054;-82
2021/12/05 22:03:18;;;;;;;5.60;3.55;;;5.90;89.30;;;;;;6233605;28;20180;-83
2021/12/05 22:06:21;;;;;;;7.38;3.78;;;5.90;89.30;;;;;;6231635;28;20057;-81
2021/12/05 22:09:23;;;;;;;7.57;3.90;;;6.00;89.40;;;;;;6235231;28;20041;-80
2021/12/05 22:12:24;;;;;;;7.30;3.72;;;6.00;89.40;;;;;;6235117;28;20048;-83
2021/12/05 22:15:29;;;;;;;6.38;3.22;;;6.00;89.40;;;;;;6238442;28;20056;-82
2021/12/05 22:18:32;;;;;;;7.60;3.47;;;6.10;89.40;;;;;;6240630;28;20049;-82
2021/12/05 22:21:39;;;;;;;7.90;3.20;;;6.10;89.20;;;;;;6238507;28;20105;-83
2021/12/05 22:24:40;;;;;;;4.03;2.22;;;6.10;89.10;;;;;;6237204;28;20070;-83
2021/12/05 22:27:42;;;;;;;3.75;1.77;;;6.10;89.00;;;;;;6198309;28;20133;-79
2021/12/05 22:30:44;;;;;;;4.85;2.22;;;6.10;89.00;;;;;;6242501;28;20100;-81
2021/12/05 22:33:47;;;;;;;4.20;2.53;;;6.10;89.10;;;;;;6239656;28;20078;-80
2021/12/05 22:36:50;;;;;;;3.70;2.33;;;6.10;89.00;;;;;;6237438;28;20450;-80
2021/12/05 22:39:53;;;;;;;6.65;2.15;;;6.00;89.00;;;;;;6239284;28;20153;-81
2021/12/05 22:42:55;;;;;;;6.85;2.78;;;6.00;89.10;;;;;;6237783;28;20054;-81
2021/12/05 22:45:57;;;;;;;6.75;2.92;;;5.90;89.10;;;;;;6238197;28;20073;-80
2021/12/05 22:48:59;;;;;;;8.98;4.20;;;5.90;89.20;;;;;;6238442;28;20042;-80
2021/12/05 22:52:03;;;;;;;7.68;3.63;;;5.90;89.30;;;;;;6232699;28;20069;-80
2021/12/05 22:55:07;;;;;;;9.20;4.70;;;6.00;89.40;;;;;;6237987;28;20496;-80
2021/12/05 22:58:09;;;;;;;13.70;4.90;;;6.00;89.50;;;;;;6238218;28;20046;-80
2021/12/05 23:01:11;;;;;;;9.65;4.32;;;6.00;89.50;;;;;;6238560;28;20133;-81
2021/12/05 23:04:17;;;;;;;5.50;3.17;;;6.00;89.50;;;;;;6238777;28;20046;-80
2021/12/05 23:07:20;;;;;;;10.10;3.67;;;6.10;89.40;;;;;;6238362;28;20054;-80
2021/12/05 23:10:22;;;;;;;7.13;4.55;;;6.10;89.30;;;;;;6238176;28;20054;-81
2021/12/05 23:13:25;;;;;;;7.20;4.28;;;6.10;89.20;;;;;;6240411;28;20577;-81
2021/12/05 23:16:28;;;;;;;6.07;3.97;;;6.10;89.10;;;;;;6239772;28;20046;-81
2021/12/05 23:19:30;;;;;;;13.07;3.40;;;6.00;89.10;;;;;;6238224;28;20053;-81
2021/12/05 23:22:33;;;;;;;8.88;3.67;;;6.00;89.20;;;;;;6238827;28;20049;-80
2021/12/05 23:25:35;;;;;;;5.60;3.38;;;5.90;89.30;;;;;;6234557;28;20088;-80
2021/12/05 23:28:37;;;;;;;9.70;5.30;;;5.90;89.40;;;;;;6237293;28;20113;-80
2021/12/05 23:31:39;;;;;;;8.23;4.70;;;5.80;89.40;;;;;;6236519;28;20049;-80
2021/12/05 23:34:42;;;;;;;8.23;4.18;;;5.90;89.40;;;;;;6236959;28;20132;-81
2021/12/05 23:37:45;;;;;;;11.32;5.90;;;5.90;89.40;;;;;;6236097;28;20042;-81
2021/12/05 23:40:48;;;;;;;13.18;5.80;;;5.90;89.30;;;;;;6236256;28;20045;-80